• Join FlightAware (Why Join?)
  • Login
  • US Flag 
08:29AM EDT


 

Airport Tracker/Info


-or-


 

Live Flight TrackerFlight Track Log ✈ CHQ4715 ✈ 09-May-2013 ✈ KCLE - KDCA

Flight Track Log - Related Links

Times and Time Zones

All times are in EDT time to prevent confusion due to time zone crossing. See the CHQ4715 flight status page for this flight to view local times or setup timezone preferences in your user account.

Time Position Orientation Groundspeed Altitude Reporting Facility
EDT Latitude Longitude Course Direction KTS MPH feet Rate Location/Type
04:38PM 41.4111 -81.8372 81° East 182 209 1,600  Level Cleveland Center
04:39PM 41.4156 -81.8014 81° East 183 211 2,700 2,040 Climbing Cleveland Center
04:40PM 41.4167 -81.7156 89° East 278 320 4,700 1,980 Climbing Cleveland Center
04:40PM 41.4086 -81.6656 102° East 273 314 5,700 2,400 Climbing Cleveland Center
04:41PM 41.3550 -81.6011 138° Southeast 287 330 8,300 2,280 Climbing Cleveland Center
04:42PM 41.3100 -81.5203 127° Southeast 292 336 10,300 1,800 Climbing Cleveland Center
04:43PM 41.2544 -81.4283 129° Southeast 315 362 12,000 1,620 Climbing Cleveland Center
04:44PM 41.1903 -81.3336 132° Southeast 335 386 13,600 1,680 Climbing Cleveland Center
04:45PM 41.1264 -81.2336 130° Southeast 345 397 15,400 1,740 Climbing Cleveland Center
04:46PM 41.0369 -81.1778 155° Southeast 350 403 17,100 1,740 Climbing Cleveland Center
04:47PM 40.9392 -81.1411 164° South 359 413 18,900 1,920 Climbing Cleveland Center
04:48PM 40.8394 -81.1100 167° South 367 422 21,000 2,100 Climbing Cleveland Center
04:49PM 40.7353 -81.0708 164° South 367 422 23,200 1,860 Climbing Cleveland Center
04:50PM 40.6500 -81.0347 162° South 362 417 24,800 900 Climbing Cleveland Center
04:51PM 40.5439 -81.0011 166° South 370 426 25,000 60 Climbing Cleveland Center
04:52PM 40.4314 -80.9594 164° South 398 458 25,000  Level Cleveland Center
04:53PM 40.3106 -80.9153 164° South 427 491 25,000  Level Cleveland Center
04:54PM 40.1878 -80.8739 166° South 443 510 25,000  Level Cleveland Center
04:55PM 40.0647 -80.8325 166° South 457 526 25,000  Level Cleveland Center
04:56PM 39.9567 -80.7319 144° Southeast 457 526 25,000  Level Cleveland Center
04:57PM 39.8692 -80.6100 133° Southeast 457 526 25,000  Level Cleveland Center
04:58PM 39.7817 -80.4886 133° Southeast 457 526 25,000  Level Cleveland Center
04:59PM 39.6917 -80.3619 133° Southeast 462 532 25,000  Level Cleveland Center
05:00PM 39.6039 -80.2408 133° Southeast 462 532 25,000  Level Cleveland Center
05:01PM 39.5119 -80.1189 134° Southeast 463 533 25,000  Level Washington Center
05:02PM 39.4225 -79.9978 134° Southeast 468 539 25,000  Level Washington Center
05:03PM 39.3311 -79.8742 134° Southeast 474 545 25,000  Level Washington Center
05:04PM 39.2903 -79.7322 110° East 457 526 25,000  Level Washington Center
05:05PM 39.2772 -79.5681 96° East 452 520 25,000  Level Washington Center
05:06PM 39.2656 -79.4092 95° East 445 512 25,000  Level Washington Center
05:07PM 39.2497 -79.2503 97° East 421 484 25,000  Level Washington Center
05:08PM 39.2350 -79.1128 98° East 401 461 25,000  Level Washington Center
05:09PM 39.2239 -78.9889 97° East 371 427 25,000  Level Washington Center
05:10PM 39.2128 -78.8706 97° East 348 400 25,000  Level Washington Center
05:11PM 39.2014 -78.7522 97° East 336 387 25,000  Level Washington Center
05:12PM 39.1897 -78.6339 97° East 336 387 25,000  Level Washington Center
05:13PM 39.1803 -78.5156 96° East 336 387 25,000  Level Washington Center
05:14PM 39.1683 -78.3972 97° East 331 381 25,000  Level Washington Center
05:15PM 39.1792 -78.2881 83° East 308 354 25,000  Level Washington Center
05:16PM 39.2522 -78.2853 North 197 227 25,000  Level Washington Center
05:17PM 39.2772 -78.3772 289° West 141 162 25,000 -120 Level Washington Center
05:18PM 39.2853 -78.4742 276° West 212 244 24,800 -480 Descending Washington Center
05:19PM 39.2911 -78.5764 274° West 250 288 24,100 -420 Descending Washington Center
05:20PM 39.2314 -78.6383 219° Southwest 248 285 24,000 -60 Descending Washington Center
05:21PM 39.1814 -78.5531 127° Southeast 153 176 24,000  Level Washington Center
05:22PM 39.1714 -78.4431 97° East 205 236 24,000  Level Washington Center
05:23PM 39.1639 -78.3247 95° East 270 311 24,000  Level Washington Center
05:24PM 39.2253 -78.2736 33° Northeast 235 270 24,000  Level Washington Center
05:25PM 39.2719 -78.3369 314° West 141 162 24,000  Level Washington Center
05:26PM 39.2781 -78.4336 275° West 193 222 24,000  Level Washington Center
05:27PM 39.2881 -78.5361 277° West 231 266 24,000  Level Washington Center
05:28PM 39.2628 -78.6261 250° West 272 313 24,000  Level Washington Center
05:29PM 39.1867 -78.5936 162° South 179 206 24,000  Level Washington Center
05:30PM 39.1747 -78.4778 98° East 184 212 24,000  Level Washington Center
05:31PM 39.1650 -78.3625 96° East 270 311 24,000  Level Washington Center
05:32PM 39.2025 -78.2753 61° Northeast 266 306 24,000  Level Washington Center
05:33PM 39.2664 -78.3100 337° Northwest 165 190 24,000  Level Washington Center
05:34PM 39.2767 -78.3989 279° West 146 168 24,000  Level Washington Center
05:35PM 39.2850 -78.4903 277° West 199 229 24,000  Level Washington Center
05:36PM 39.2911 -78.5817 275° West 239 275 24,000  Level Washington Center
05:37PM 39.2314 -78.6383 216° Southwest 236 272 24,000  Level Washington Center
05:38PM 39.1811 -78.5558 128° Southeast 157 181 24,000  Level Washington Center
05:39PM 39.1714 -78.4508 97° East 198 228 24,000  Level Washington Center
05:40PM 39.1636 -78.3383 95° East 265 305 24,000  Level Washington Center
05:41PM 39.2169 -78.2786 41° Northeast 230 265 24,000 -300 Level Washington Center
05:42PM 39.2636 -78.3394 315° West 133 153 23,500 -2,040 Descending Washington Center
05:44PM 39.1536 -78.3136 170° South 163 188 18,000 -2,760 Descending Washington Center
05:45PM 39.1189 -78.1814 109° East 275 316 15,300 -1,920 Descending Washington Center
05:46PM 39.0453 -78.1200 147° Southeast 300 345 14,100 -960 Descending Washington Center
05:47PM 39.0075 -78.0278 118° Southeast 286 329 13,400 -1,200 Descending Washington Center
05:48PM 39.0078 -77.9183 90° East 281 323 11,800 -1,500 Descending Washington Center
05:49PM 39.0094 -77.8194 89° East 291 335 10,500 -1,200 Descending Washington Center
05:50PM 38.9969 -77.7042 98° East 301 346 9,400 -1,080 Descending Washington Center
05:51PM 38.9667 -77.6167 114° Southeast 300 345 8,500 -780 Descending Potomac TRACON
05:52PM 38.9333 -77.5167 113° Southeast 301 346 8,000 -480 Descending Potomac TRACON
05:53PM 38.9000 -77.4167 113° Southeast 300 345 7,600 -960 Descending Potomac TRACON
05:54PM 38.8500 -77.3167 123° Southeast 288 331 6,000 -780 Descending Potomac TRACON
05:55PM 38.8167 -77.2333 117° Southeast 257 296 6,000  Level Potomac TRACON
05:56PM 38.7833 -77.1667 123° Southeast 263 303 6,000 -420 Level Potomac TRACON
05:57PM 38.7333 -77.1167 142° Southeast 228 262 5,200 -900 Descending Potomac TRACON
05:58PM 38.6667 -77.1000 169° South 201 231 4,200 -600 Descending Potomac TRACON
05:59PM 38.6500 -77.0500 113° Southeast 200 230 4,000 -720 Descending Potomac TRACON
06:00PM 38.7167 -77.0333 11° North 194 223 2,800 -1,140 Descending Potomac TRACON